createdAt,value
2019-05-11T00:00:38.276Z,74.46
2019-05-11T00:03:46.878Z,74.60
2019-05-11T00:06:55.499Z,74.98
2019-05-11T00:10:05.659Z,75.16
2019-05-11T00:13:14.181Z,75.43
2019-05-11T00:16:32.995Z,75.19
2019-05-11T00:19:41.677Z,74.99
2019-05-11T00:22:50.299Z,75.05
2019-05-11T00:25:58.930Z,74.66
2019-05-11T00:29:07.665Z,74.47
2019-05-11T00:32:16.277Z,74.27
2019-05-11T00:35:25.988Z,74.96
2019-05-11T00:38:34.713Z,74.96
2019-05-11T00:41:43.485Z,75.21
2019-05-11T00:44:52.109Z,74.88
2019-05-11T00:48:00.798Z,75.00
2019-05-11T00:51:08.933Z,74.73
2019-05-11T00:54:17.608Z,74.43
2019-05-11T00:57:26.257Z,74.80
2019-05-11T01:00:45.133Z,75.32
2019-05-11T01:03:54.017Z,75.23
2019-05-11T01:07:03.899Z,75.80
2019-05-11T01:10:23.592Z,75.89
2019-05-11T01:13:23.508Z,75.28
2019-05-11T01:16:32.180Z,75.47
2019-05-11T01:19:41.391Z,75.82
2019-05-11T01:23:00.527Z,75.77
2019-05-11T01:26:09.217Z,76.33
2019-05-11T01:29:17.933Z,76.65
2019-05-11T01:32:26.516Z,76.33
2019-05-11T01:35:35.120Z,76.18
2019-05-11T01:38:43.856Z,76.25
2019-05-11T01:41:52.463Z,75.77
2019-05-11T01:45:01.074Z,75.34
2019-05-11T01:48:09.911Z,75.59
2019-05-11T01:51:18.542Z,75.65
2019-05-11T01:54:27.427Z,76.46
2019-05-11T01:57:36.115Z,76.91
2019-05-11T02:00:44.923Z,78.12
2019-05-11T02:04:03.777Z,78.20
2019-05-11T02:07:12.767Z,77.90
2019-05-11T02:10:21.137Z,77.16
2019-05-11T02:13:29.750Z,77.28
2019-05-11T02:16:38.385Z,77.01
2019-05-11T02:19:47.129Z,76.52
2019-05-11T02:22:56.845Z,76.46
2019-05-11T02:26:15.928Z,76.28
2019-05-11T02:29:35.142Z,76.48
2019-05-11T02:32:43.767Z,76.74
2019-05-11T02:35:52.391Z,76.64
2019-05-11T02:39:01.078Z,76.71
2019-05-11T02:42:10.222Z,76.68
2019-05-11T02:45:40.232Z,77.01
2019-05-11T02:48:59.214Z,77.07
2019-05-11T02:52:08.160Z,76.85
2019-05-11T02:55:20.321Z,77.26
2019-05-11T02:58:27.661Z,77.40
2019-05-11T03:01:46.525Z,77.79
2019-05-11T03:04:55.122Z,77.85
2019-05-11T03:08:03.918Z,77.81
2019-05-11T03:11:12.533Z,78.16
2019-05-11T03:14:21.113Z,77.90
2019-05-11T03:17:32.994Z,77.90
2019-05-11T03:20:41.600Z,78.08
2019-05-11T03:24:01.420Z,77.93
2019-05-11T03:27:09.940Z,77.81
2019-05-11T03:30:20.029Z,77.53
2019-05-11T03:33:29.029Z,76.64
2019-05-11T03:36:37.648Z,77.37
2019-05-11T03:39:46.294Z,77.54
2019-05-11T03:43:05.128Z,77.39
2019-05-11T03:46:13.896Z,77.27
2019-05-11T03:49:22.680Z,76.92
2019-05-11T03:52:31.372Z,76.77
2019-05-11T03:55:39.965Z,76.43
2019-05-11T03:58:48.675Z,76.09
2019-05-11T04:01:57.316Z,76.22
2019-05-11T04:05:06.430Z,76.43
2019-05-11T04:08:15.068Z,76.58
2019-05-11T04:11:23.655Z,76.89
2019-05-11T04:14:32.277Z,76.92
2019-05-11T04:17:41.017Z,76.82
2019-05-11T04:20:49.523Z,76.37
2019-05-11T04:24:08.442Z,76.04
2019-05-11T04:27:19.602Z,75.80
2019-05-11T04:30:27.475Z,75.77
2019-05-11T04:33:36.175Z,75.99
2019-05-11T04:36:44.793Z,75.75
2019-05-11T04:39:53.480Z,75.31
2019-05-11T04:43:02.170Z,75.12
2019-05-11T04:46:11.060Z,74.99
2019-05-11T04:49:19.348Z,75.00
2019-05-11T04:52:38.119Z,74.81
2019-05-11T04:55:46.699Z,74.69
2019-05-11T04:58:55.337Z,74.64
2019-05-11T05:02:03.887Z,74.87
2019-05-11T05:05:12.590Z,74.64
2019-05-11T05:08:26.313Z,74.37
2019-05-11T05:11:38.382Z,73.35
2019-05-11T05:14:50.021Z,72.96
2019-05-11T05:18:11.604Z,73.01
2019-05-11T05:21:20.181Z,72.16
2019-05-11T05:24:31.562Z,72.62
2019-05-11T05:27:53.373Z,72.24
2019-05-11T05:31:04.064Z,72.08
2019-05-11T05:34:12.756Z,72.31
2019-05-11T05:37:21.278Z,72.16
2019-05-11T05:40:29.899Z,72.11
2019-05-11T05:43:38.484Z,71.06
2019-05-11T05:46:47.072Z,70.50
2019-05-11T05:50:06.721Z,69.29
2019-05-11T05:53:15.215Z,68.23
2019-05-11T05:56:33.897Z,67.14
2019-05-11T05:59:42.985Z,66.34
2019-05-11T06:02:51.602Z,65.33
2019-05-11T06:06:00.331Z,65.28
2019-05-11T06:09:09.106Z,64.75
2019-05-11T06:12:17.683Z,62.75
2019-05-11T06:15:26.215Z,60.16
2019-05-11T06:18:34.845Z,57.00
2019-05-11T06:21:43.394Z,54.73
2019-05-11T06:24:53.291Z,54.65
2019-05-11T06:28:01.967Z,53.40
2019-05-11T06:31:10.651Z,51.68
2019-05-11T06:34:19.321Z,50.53
2019-05-11T06:37:27.973Z,50.39
2019-05-11T06:40:36.486Z,51.14
2019-05-11T06:44:00.684Z,52.31
2019-05-11T06:46:55.553Z,53.76
2019-05-11T06:50:05.033Z,54.38
2019-05-11T06:53:13.564Z,54.77
2019-05-11T06:56:22.120Z,54.87
2019-05-11T06:59:30.752Z,54.14
2019-05-11T07:02:39.327Z,55.55
2019-05-11T07:05:57.956Z,55.08
2019-05-11T07:09:08.349Z,55.89
2019-05-11T07:12:17.094Z,55.27
2019-05-11T07:15:25.782Z,54.61
2019-05-11T07:18:34.462Z,54.08
2019-05-11T07:21:43.221Z,53.92
2019-05-11T07:24:51.761Z,53.46
2019-05-11T07:28:00.531Z,53.19
2019-05-11T07:31:09.130Z,53.42
2019-05-11T07:34:18.527Z,53.35
2019-05-11T07:37:27.957Z,51.48
2019-05-11T07:40:38.459Z,51.15
2019-05-11T07:43:48.480Z,49.58
2019-05-11T07:46:58.701Z,49.30
2019-05-11T07:50:09.039Z,48.53
2019-05-11T07:53:18.593Z,46.81
2019-05-11T07:56:28.508Z,46.45
2019-05-11T07:59:48.688Z,45.81
2019-05-11T08:02:58.547Z,46.66
2019-05-11T08:06:18.328Z,45.85
2019-05-11T08:09:27.933Z,46.30
2019-05-11T08:12:38.984Z,46.18
2019-05-11T08:15:48.869Z,45.44
2019-05-11T08:18:58.985Z,44.06
2019-05-11T08:22:08.653Z,43.60
2019-05-11T08:25:18.354Z,44.21
2019-05-11T08:28:28.796Z,42.82
2019-05-11T08:31:38.445Z,44.07
2019-05-11T08:34:49.052Z,44.33
2019-05-11T08:37:58.220Z,43.09
2019-05-11T08:41:18.432Z,42.90
2019-05-11T08:44:28.728Z,42.09
2019-05-11T08:47:37.919Z,41.95
2019-05-11T08:50:48.663Z,41.10
2019-05-11T08:53:58.430Z,42.66
2019-05-11T08:57:08.134Z,42.60
2019-05-11T09:00:29.380Z,43.18
2019-05-11T09:03:38.704Z,42.68
2019-05-11T09:06:48.064Z,41.96
2019-05-11T09:09:58.619Z,41.75
2019-05-11T09:13:08.164Z,41.52
2019-05-11T09:16:18.878Z,42.72
2019-05-11T09:19:28.431Z,41.79
2019-05-11T09:22:38.120Z,41.98
2019-05-11T09:25:47.670Z,41.25
2019-05-11T09:29:08.582Z,40.54
2019-05-11T09:32:17.942Z,41.32
2019-05-11T09:35:29.034Z,41.30
2019-05-11T09:38:38.357Z,41.03
2019-05-11T09:41:48.821Z,41.52
2019-05-11T09:44:57.810Z,41.10
2019-05-11T09:48:08.641Z,41.10
2019-05-11T09:51:18.448Z,40.61
2019-05-11T09:54:28.897Z,40.69
2019-05-11T09:57:38.155Z,41.98
2019-05-11T10:00:47.903Z,41.50
2019-05-11T10:03:58.478Z,42.38
2019-05-11T10:07:08.994Z,41.06
2019-05-11T10:10:18.679Z,40.78
2019-05-11T10:13:38.596Z,41.52
2019-05-11T10:16:58.464Z,41.31
2019-05-11T10:20:09.252Z,40.27
2019-05-11T10:23:18.702Z,40.49
2019-05-11T10:26:38.442Z,40.59
2019-05-11T10:29:48.122Z,38.40
2019-05-11T10:32:57.755Z,38.04
2019-05-11T10:36:07.914Z,38.26
2019-05-11T10:39:27.960Z,36.78
2019-05-11T10:42:37.938Z,36.90
2019-05-11T10:45:48.335Z,37.59
2019-05-11T10:49:00.806Z,38.01
2019-05-11T10:52:10.388Z,37.99
2019-05-11T10:55:19.684Z,37.75
2019-05-11T10:58:28.730Z,35.86
2019-05-11T11:01:38.181Z,36.47
2019-05-11T11:05:04.770Z,39.04
2019-05-11T11:08:13.426Z,38.66
2019-05-11T11:11:22.061Z,37.41
2019-05-11T11:14:31.708Z,38.45
2019-05-11T11:17:38.742Z,37.93
2019-05-11T11:31:24.346Z,35.37
2019-05-11T11:34:33.107Z,34.66
2019-05-11T11:37:41.731Z,33.37
2019-05-11T11:40:51.425Z,32.99
2019-05-11T11:44:02.654Z,32.50
2019-05-11T11:47:12.704Z,33.18
2019-05-11T11:50:30.749Z,33.65
2019-05-11T11:53:39.725Z,33.08
2019-05-11T11:56:50.856Z,33.95
2019-05-11T12:00:00.224Z,33.86
2019-05-11T12:03:12.886Z,32.82
2019-05-11T12:06:20.685Z,33.97
2019-05-11T12:09:39.496Z,33.54
2019-05-11T12:12:50.227Z,33.22
2019-05-11T12:16:09.531Z,33.29
2019-05-11T12:19:18.728Z,33.47
2019-05-11T12:22:52.341Z,33.92
2019-05-11T12:26:02.687Z,32.07
2019-05-11T12:29:18.800Z,31.01
2019-05-11T12:32:41.793Z,31.28
2019-05-11T12:36:18.781Z,30.53
2019-05-11T12:39:28.183Z,30.08
2019-05-11T12:42:37.947Z,29.29
2019-05-11T12:45:58.742Z,28.62
2019-05-11T12:49:07.856Z,28.97
2019-05-11T12:52:18.446Z,30.46
2019-05-11T12:55:28.629Z,31.89
2019-05-11T12:58:49.136Z,31.09
2019-05-11T13:02:08.480Z,30.25
2019-05-11T13:05:18.025Z,29.51
2019-05-11T13:08:27.754Z,29.02
2019-05-11T13:11:48.240Z,29.29
2019-05-11T13:14:58.019Z,28.70
2019-05-11T13:18:08.408Z,29.27
2019-05-11T13:21:18.315Z,30.71
2019-05-11T13:24:48.739Z,31.45
2019-05-11T13:27:58.111Z,31.71
2019-05-11T13:31:08.207Z,32.26
2019-05-11T13:34:42.299Z,31.15
2019-05-11T13:37:50.885Z,31.50
2019-05-11T13:40:59.532Z,31.51
2019-05-11T13:44:08.195Z,31.66
2019-05-11T13:47:18.005Z,30.84
2019-05-11T13:50:26.698Z,31.09
2019-05-11T14:04:38.721Z,32.69
2019-05-11T14:08:05.286Z,32.41
2019-05-11T14:11:13.901Z,33.46
2019-05-11T14:14:22.558Z,33.04
2019-05-11T14:17:31.852Z,33.12
2019-05-11T14:20:50.877Z,32.54
2019-05-11T14:23:59.690Z,33.00
2019-05-11T14:27:08.576Z,32.00
2019-05-11T14:30:19.055Z,31.54
2019-05-11T14:33:28.317Z,32.86
2019-05-11T14:36:38.732Z,32.43
2019-05-11T14:39:58.392Z,32.28
2019-05-11T14:43:08.383Z,32.31
2019-05-11T14:46:18.107Z,32.15
2019-05-11T14:49:27.613Z,32.15
2019-05-11T14:52:38.849Z,32.81
2019-05-11T14:55:48.828Z,31.85
2019-05-11T14:58:58.029Z,31.04
2019-05-11T15:02:24.646Z,31.22
2019-05-11T15:05:33.231Z,31.36
2019-05-11T15:08:41.838Z,31.99
2019-05-11T15:11:52.627Z,31.70
2019-05-11T15:15:00.790Z,33.47
2019-05-11T15:18:09.504Z,30.62
2019-05-11T15:21:18.844Z,31.83
2019-05-11T15:24:28.865Z,32.77
2019-05-11T15:27:37.902Z,31.97
2019-05-11T15:30:48.282Z,32.76
2019-05-11T15:33:57.722Z,32.03
2019-05-11T15:37:17.782Z,31.65
2019-05-11T15:40:27.857Z,32.56
2019-05-11T15:43:38.559Z,32.17
2019-05-11T15:46:48.024Z,32.58
2019-05-11T15:49:57.902Z,33.23
2019-05-11T15:53:08.609Z,31.76
2019-05-11T15:56:18.803Z,32.31
2019-05-11T15:59:27.917Z,31.70
2019-05-11T16:02:37.821Z,32.03
2019-05-11T16:05:47.959Z,32.18
2019-05-11T16:08:58.617Z,32.41
2019-05-11T16:12:06.955Z,32.75
2019-05-11T16:15:27.610Z,32.88
2019-05-11T16:18:36.008Z,31.48
2019-05-11T16:21:44.565Z,31.51
2019-05-11T16:24:53.152Z,31.18
2019-05-11T16:28:01.674Z,31.50
2019-05-11T16:31:10.341Z,32.00
2019-05-11T16:34:18.952Z,32.27
2019-05-11T16:37:38.105Z,33.06
2019-05-11T16:40:58.408Z,32.83
2019-05-11T16:44:07.880Z,32.84
2019-05-11T16:47:18.156Z,32.97
2019-05-11T16:50:38.413Z,33.52
2019-05-11T16:53:48.296Z,33.65
2019-05-11T16:56:57.915Z,33.69
2019-05-11T17:00:08.819Z,33.06
2019-05-11T17:03:28.074Z,33.39
2019-05-11T17:06:48.641Z,33.34
2019-05-11T17:10:08.822Z,33.55
2019-05-11T17:13:18.032Z,33.57
2019-05-11T17:16:28.465Z,33.46
2019-05-11T17:19:45.357Z,33.85
2019-05-11T17:22:47.958Z,33.73
2019-05-11T17:26:08.723Z,34.55
2019-05-11T17:29:18.602Z,34.61
2019-05-11T17:32:29.369Z,34.66
2019-05-11T17:35:37.594Z,34.72
2019-05-11T17:38:47.909Z,35.33
2019-05-11T17:41:58.267Z,35.51
2019-05-11T17:45:08.087Z,35.80
2019-05-11T17:48:17.820Z,36.40
2019-05-11T17:51:28.569Z,36.79
2019-05-11T17:54:38.313Z,36.88
2019-05-11T17:57:49.611Z,37.45
2019-05-11T18:00:58.829Z,37.74
2019-05-11T18:04:25.315Z,37.84
2019-05-11T18:07:33.976Z,38.57
2019-05-11T18:10:42.656Z,39.03
2019-05-11T18:13:51.256Z,42.29
2019-05-11T18:16:59.777Z,44.43
2019-05-11T18:20:16.818Z,47.71
2019-05-11T18:23:18.712Z,48.93
2019-05-11T18:26:38.190Z,49.69
2019-05-11T18:29:48.557Z,49.61
2019-05-11T18:32:59.421Z,49.98
2019-05-11T18:36:08.115Z,50.16
2019-05-11T18:39:18.606Z,51.21
2019-05-11T18:42:27.118Z,51.93
2019-05-11T18:45:38.037Z,51.96
2019-05-11T18:48:48.502Z,52.59
2019-05-11T18:51:58.534Z,51.40
2019-05-11T18:55:08.563Z,51.83
2019-05-11T18:58:18.545Z,51.65
2019-05-11T19:01:38.128Z,51.93
2019-05-11T19:04:48.772Z,52.08
2019-05-11T19:08:07.365Z,52.14
2019-05-11T19:11:18.080Z,52.69
2019-05-11T19:14:28.166Z,52.61
2019-05-11T19:17:38.597Z,53.24
2019-05-11T19:20:49.420Z,53.77
2019-05-11T19:23:58.150Z,54.08
2019-05-11T19:27:18.565Z,54.17
2019-05-11T19:30:27.692Z,54.60
2019-05-11T19:33:38.203Z,55.08
2019-05-11T19:36:58.014Z,54.38
2019-05-11T19:40:09.626Z,54.84
2019-05-11T19:43:28.488Z,55.25
2019-05-11T19:46:38.819Z,55.79
2019-05-11T19:49:47.973Z,55.61
2019-05-11T19:53:08.409Z,55.59
2019-05-11T19:56:18.252Z,55.48
2019-05-11T19:59:27.980Z,55.99
2019-05-11T20:02:47.191Z,56.35
2019-05-11T20:05:58.057Z,56.33
2019-05-11T20:09:08.718Z,56.76
2019-05-11T20:12:18.089Z,56.57
2019-05-11T20:15:26.830Z,56.81
2019-05-11T20:18:35.527Z,57.37
2019-05-11T20:21:44.140Z,57.49
2019-05-11T20:24:52.786Z,58.15
2019-05-11T20:28:01.410Z,57.76
2019-05-11T20:31:10.281Z,57.99
2019-05-11T20:34:19.010Z,58.10
2019-05-11T20:37:28.732Z,58.46
2019-05-11T20:40:37.872Z,58.92
2019-05-11T20:43:58.061Z,59.01
2019-05-11T20:47:06.688Z,58.58
2019-05-11T20:50:18.165Z,58.66
2019-05-11T20:53:28.443Z,58.57
2019-05-11T20:56:38.640Z,58.78
2019-05-11T20:59:45.147Z,58.90
2019-05-11T21:02:53.805Z,59.38
2019-05-11T21:06:02.441Z,60.58
2019-05-11T21:09:11.114Z,60.25
2019-05-11T21:12:19.733Z,60.02
2019-05-11T21:15:38.704Z,59.92
2019-05-11T21:18:47.487Z,60.20
2019-05-11T21:21:58.753Z,60.20
2019-05-11T21:25:09.061Z,60.14
2019-05-11T21:28:30.380Z,60.50
2019-05-11T21:31:40.590Z,61.05
2019-05-11T21:34:48.896Z,61.12
2019-05-11T21:37:58.130Z,60.79
2019-05-11T21:41:08.768Z,61.05
2019-05-11T21:44:18.879Z,61.03
2019-05-11T21:47:28.967Z,60.82
2019-05-11T21:50:37.890Z,61.17
2019-05-11T21:53:48.510Z,61.50
2019-05-11T21:57:08.300Z,61.16
2019-05-11T22:00:18.866Z,61.55
2019-05-11T22:03:28.161Z,62.17
2019-05-11T22:06:39.021Z,62.23
2019-05-11T22:09:47.506Z,62.36
2019-05-11T22:12:56.128Z,61.98
2019-05-11T22:16:14.905Z,62.21
2019-05-11T22:19:23.567Z,62.54
2019-05-11T22:22:32.091Z,62.11
2019-05-11T22:25:40.794Z,62.27
2019-05-11T22:28:49.479Z,63.15
2019-05-11T22:31:58.243Z,63.14
2019-05-11T22:35:07.052Z,63.69
2019-05-11T22:38:15.744Z,63.06
2019-05-11T22:41:24.384Z,63.26
2019-05-11T22:44:35.803Z,63.25
2019-05-11T22:47:43.461Z,63.70
2019-05-11T22:51:02.204Z,63.70
2019-05-11T22:54:11.180Z,63.39
2019-05-11T22:57:30.423Z,63.61
2019-05-11T23:00:44.609Z,64.20
2019-05-11T23:04:03.232Z,64.37
2019-05-11T23:07:11.835Z,64.20
2019-05-11T23:10:20.449Z,64.32
2019-05-11T23:13:30.391Z,64.21
2019-05-11T23:16:39.204Z,64.92
2019-05-11T23:19:48.702Z,64.68
2019-05-11T23:23:01.328Z,64.25
2019-05-11T23:26:08.594Z,64.40
2019-05-11T23:29:17.555Z,64.37
2019-05-11T23:32:25.822Z,64.80
2019-05-11T23:35:44.917Z,64.82
2019-05-11T23:38:53.711Z,66.05
2019-05-11T23:42:02.334Z,65.81
2019-05-11T23:45:12.048Z,65.78
2019-05-11T23:48:20.760Z,66.01
2019-05-11T23:51:29.432Z,66.00
2019-05-11T23:54:48.554Z,65.67
2019-05-11T23:58:08.164Z,65.99
